Página principal
METAR-TAF:

METAR-TAF

Aeroportos :

Aeroporto Internacional Amílcar Cabral

Sal, Cabo Verde

latitude: 16-44N, longitude: 022-57W, altura: 54 m

Observação actual do tempo

O boletim foi feito há 42 minutos, às 14:00 UTC
Vento 10 kt de es-nordeste
Temperatura 25°C
Humidade 47%
Pressão 1015 hPa
Visibilidade 10 km ou mais
Nuvens fragmentadasa uma altura de 1600 ft

METAR: GVAC 051400Z 07010KT 9999 BKN016 25/13 Q1015 NOSIG

Hora: 13:42 (14:42 UTC)

Previsão

O boletim foi feito há 3 horas e 42 minutos, às 11:00 UTC
Previsão válida de 05 às 12 UTC a 06 às 18 UTC
Vento 8 kt de es-nordeste
Visibilidade 10 km ou mais
Nuvens fragmentadasa uma altura de 1500 ft

TAF: GVAC 051100Z 0512/0618 07008KT 9999 BKN015

Observações e previsões do tempo de mais de 4000 aeroportos (mensagens METAR e TAF).

As estações disponíveis são os pontos amarelos e vermelhos sobre o mapa.

Mova o rato sobre o mapa para ver o nome da estação.

Depois clique no ponto para visualizar as observações e previsões meteorológicas.

Para alterar o mapa : clique nos botões verdes com uma cruz preta para aumentar o zoom; no botão verde com uma pitada de zoom; ou nas setas verdes para mapas adjacentes.


METAR-TAF: